createdAt,value
2019-03-23T00:00:22.632Z,0.00
2019-03-23T00:01:22.726Z,0.00
2019-03-23T00:02:22.431Z,0.00
2019-03-23T00:03:22.742Z,0.00
2019-03-23T00:04:25.354Z,0.00
2019-03-23T00:05:23.586Z,0.00
2019-03-23T00:06:30.725Z,0.00
2019-03-23T00:07:23.999Z,0.00
2019-03-23T00:08:24.106Z,0.00
2019-03-23T00:09:24.110Z,0.00
2019-03-23T00:10:23.945Z,0.00
2019-03-23T00:11:24.534Z,0.00
2019-03-23T00:12:24.348Z,0.00
2019-03-23T00:13:24.958Z,0.00
2019-03-23T00:14:24.658Z,0.00
2019-03-23T00:15:25.179Z,0.00
2019-03-23T00:16:24.674Z,0.00
2019-03-23T00:17:25.718Z,0.00
2019-03-23T00:18:25.708Z,0.00
2019-03-23T00:19:26.224Z,0.00
2019-03-23T00:20:26.039Z,0.00
2019-03-23T00:21:26.340Z,0.00
2019-03-23T00:22:26.759Z,0.00
2019-03-23T00:23:27.176Z,0.00
2019-03-23T00:24:27.693Z,0.00
2019-03-23T00:25:27.606Z,0.00
2019-03-23T00:26:27.805Z,0.00
2019-03-23T00:27:27.916Z,0.00
2019-03-23T00:28:28.127Z,0.00
2019-03-23T00:29:28.238Z,0.00
2019-03-23T00:30:28.460Z,0.30
2019-03-23T00:31:28.451Z,0.06
2019-03-23T00:32:29.179Z,0.00
2019-03-23T00:33:29.288Z,0.00
2019-03-23T00:34:29.817Z,0.00
2019-03-23T00:35:29.622Z,0.00
2019-03-23T00:36:29.822Z,0.00
2019-03-23T00:37:30.231Z,0.00
2019-03-23T00:38:30.651Z,0.00
2019-03-23T00:39:30.962Z,0.00
2019-03-23T00:40:31.187Z,0.18
2019-03-23T00:41:31.693Z,0.51
2019-03-23T00:42:31.700Z,0.61
2019-03-23T00:43:32.124Z,0.39
2019-03-23T00:44:32.738Z,0.07
2019-03-23T00:45:32.858Z,0.00
2019-03-23T00:46:32.955Z,0.00
2019-03-23T00:47:32.756Z,0.00
2019-03-23T00:48:33.275Z,0.00
2019-03-23T00:49:33.692Z,0.00
2019-03-23T00:50:34.221Z,0.00
2019-03-23T00:51:34.214Z,0.01
2019-03-23T00:52:34.427Z,0.00
2019-03-23T00:53:34.638Z,0.00
2019-03-23T00:54:34.849Z,0.00
2019-03-23T00:55:34.969Z,0.00
2019-03-23T00:56:35.232Z,0.00
2019-03-23T00:57:35.484Z,0.00
2019-03-23T00:58:35.796Z,0.00
2019-03-23T00:59:36.312Z,0.00
2019-03-23T01:00:35.828Z,0.00
2019-03-23T01:01:35.159Z,0.18
2019-03-23T01:02:35.902Z,0.20
2019-03-23T01:03:36.756Z,0.00
2019-03-23T01:04:36.964Z,0.35
2019-03-23T01:05:37.610Z,0.15
2019-03-23T01:06:37.285Z,0.00
2019-03-23T01:07:37.697Z,0.00
2019-03-23T01:08:38.219Z,0.64
2019-03-23T01:09:38.227Z,0.47
2019-03-23T01:10:38.036Z,0.06
2019-03-23T01:11:38.441Z,0.00
2019-03-23T01:12:38.756Z,0.00
2019-03-23T01:13:39.068Z,0.00
2019-03-23T01:14:39.346Z,0.00
2019-03-23T01:15:39.809Z,0.00
2019-03-23T01:16:40.318Z,0.00
2019-03-23T01:17:40.122Z,0.00
2019-03-23T01:18:40.638Z,0.00
2019-03-23T01:19:40.644Z,0.00
2019-03-23T01:20:49.348Z,0.00
2019-03-23T01:21:40.678Z,0.00
2019-03-23T01:22:41.178Z,0.00
2019-03-23T01:23:41.289Z,0.00
2019-03-23T01:24:41.393Z,0.00
2019-03-23T01:25:41.607Z,0.00
2019-03-23T01:26:41.625Z,0.00
2019-03-23T01:27:41.723Z,0.00
2019-03-23T01:28:41.523Z,0.00
2019-03-23T01:29:41.948Z,0.00
2019-03-23T01:30:42.364Z,0.00
2019-03-23T01:31:42.751Z,0.00
2019-03-23T01:32:43.010Z,0.10
2019-03-23T01:33:43.503Z,0.42
2019-03-23T01:34:43.302Z,0.30
2019-03-23T01:35:43.524Z,0.00
2019-03-23T01:36:43.827Z,0.00
2019-03-23T01:37:44.116Z,0.07
2019-03-23T01:38:44.454Z,0.37
2019-03-23T01:39:44.976Z,0.62
2019-03-23T01:40:45.092Z,0.11
2019-03-23T01:41:45.397Z,0.00
2019-03-23T01:42:45.609Z,0.00
2019-03-23T01:43:46.026Z,0.00
2019-03-23T01:44:46.127Z,0.20
2019-03-23T01:45:46.978Z,0.98
2019-03-23T01:46:46.964Z,1.39
2019-03-23T01:47:46.974Z,1.37
2019-03-23T01:48:47.079Z,0.72
2019-03-23T01:49:47.189Z,0.32
2019-03-23T01:50:47.190Z,0.00
2019-03-23T01:51:47.102Z,0.00
2019-03-23T01:52:47.721Z,0.00
2019-03-23T01:53:47.831Z,0.41
2019-03-23T01:54:47.938Z,0.65
2019-03-23T01:55:47.804Z,0.56
2019-03-23T01:56:48.055Z,0.56
2019-03-23T01:57:48.075Z,0.45
2019-03-23T01:58:48.109Z,0.01
2019-03-23T01:59:47.972Z,0.00
2019-03-23T02:00:48.501Z,0.00
2019-03-23T02:01:48.395Z,0.28
2019-03-23T02:02:48.815Z,0.69
2019-03-23T02:03:49.024Z,0.59
2019-03-23T02:04:49.643Z,0.45
2019-03-23T02:05:49.657Z,0.38
2019-03-23T02:06:49.243Z,0.24
2019-03-23T02:07:49.455Z,0.48
2019-03-23T02:08:49.981Z,0.39
2019-03-23T02:09:49.581Z,0.04
2019-03-23T02:10:49.795Z,0.03
2019-03-23T02:11:49.994Z,0.00
2019-03-23T02:12:50.215Z,0.00
2019-03-23T02:13:50.416Z,0.00
2019-03-23T02:14:50.729Z,0.00
2019-03-23T02:15:51.264Z,0.00
2019-03-23T02:16:51.051Z,0.00
2019-03-23T02:17:51.368Z,0.00
2019-03-23T02:18:51.583Z,0.00
2019-03-23T02:19:51.811Z,0.00
2019-03-23T02:20:52.316Z,0.00
2019-03-23T02:21:52.522Z,0.00
2019-03-23T02:22:52.326Z,0.00
2019-03-23T02:23:52.634Z,0.00
2019-03-23T02:24:52.963Z,0.00
2019-03-23T02:25:53.174Z,0.00
2019-03-23T02:26:53.481Z,0.00
2019-03-23T02:27:54.101Z,0.00
2019-03-23T02:28:54.101Z,0.00
2019-03-23T02:29:54.413Z,0.00
2019-03-23T02:30:55.229Z,0.00
2019-03-23T02:31:54.957Z,0.00
2019-03-23T02:32:55.313Z,0.00
2019-03-23T02:33:55.887Z,0.00
2019-03-23T02:34:55.675Z,0.00
2019-03-23T02:35:56.101Z,0.21
2019-03-23T02:36:56.618Z,0.06
2019-03-23T02:37:56.320Z,0.00
2019-03-23T02:38:56.580Z,0.00
2019-03-23T02:39:57.041Z,0.00
2019-03-23T02:40:57.378Z,0.00
2019-03-23T02:41:57.778Z,0.00
2019-03-23T02:42:57.987Z,0.00
2019-03-23T02:43:58.504Z,0.00
2019-03-23T02:44:58.305Z,0.00
2019-03-23T02:45:58.925Z,0.00
2019-03-23T02:46:59.047Z,0.00
2019-03-23T02:47:59.148Z,0.00
2019-03-23T02:48:59.147Z,0.00
2019-03-23T02:49:59.057Z,0.00
2019-03-23T02:50:59.471Z,0.00
2019-03-23T02:52:00.002Z,0.00
2019-03-23T02:53:00.105Z,0.56
2019-03-23T02:53:59.893Z,0.75
2019-03-23T02:55:00.529Z,0.10
2019-03-23T02:56:00.840Z,0.35
2019-03-23T02:57:00.745Z,0.00
2019-03-23T02:58:01.265Z,0.00
2019-03-23T02:59:01.371Z,0.00
2019-03-23T03:00:01.265Z,0.00
2019-03-23T03:01:01.690Z,0.00
2019-03-23T03:02:02.314Z,0.00
2019-03-23T03:03:02.310Z,0.00
2019-03-23T03:04:02.322Z,0.00
2019-03-23T03:05:01.922Z,0.00
2019-03-23T03:06:02.646Z,0.00
2019-03-23T03:07:02.759Z,0.00
2019-03-23T03:08:02.655Z,0.00
2019-03-23T03:09:03.280Z,0.31
2019-03-23T03:10:03.351Z,0.18
2019-03-23T03:11:03.707Z,0.00
2019-03-23T03:12:04.224Z,0.00
2019-03-23T03:13:04.023Z,0.17
2019-03-23T03:14:04.426Z,0.04
2019-03-23T03:15:04.960Z,0.00
2019-03-23T03:16:04.856Z,0.04
2019-03-23T03:17:05.385Z,0.55
2019-03-23T03:18:05.077Z,1.06
2019-03-23T03:19:05.291Z,0.93
2019-03-23T03:20:05.579Z,0.96
2019-03-23T03:21:05.822Z,0.98
2019-03-23T03:22:06.031Z,1.10
2019-03-23T03:23:06.338Z,0.62
2019-03-23T03:24:06.753Z,0.95
2019-03-23T03:25:06.964Z,0.77
2019-03-23T03:26:07.278Z,1.52
2019-03-23T03:27:07.705Z,1.35
2019-03-23T03:28:08.221Z,1.07
2019-03-23T03:29:08.118Z,0.65
2019-03-23T03:30:08.639Z,0.73
2019-03-23T03:31:08.355Z,0.54
2019-03-23T03:32:08.736Z,0.06
2019-03-23T03:33:08.964Z,0.00
2019-03-23T03:34:09.277Z,0.24
2019-03-23T03:35:09.795Z,0.49
2019-03-23T03:36:10.277Z,0.00
2019-03-23T03:37:10.529Z,0.00
2019-03-23T03:38:10.839Z,0.00
2019-03-23T03:39:11.358Z,0.00
2019-03-23T03:40:11.361Z,0.00
2019-03-23T03:41:11.384Z,0.00
2019-03-23T03:42:11.486Z,0.00
2019-03-23T03:43:11.576Z,0.01
2019-03-23T03:44:11.387Z,0.72
2019-03-23T03:45:11.785Z,0.58
2019-03-23T03:46:11.711Z,0.68
2019-03-23T03:47:12.236Z,0.27
2019-03-23T03:48:11.931Z,0.42
2019-03-23T03:49:13.082Z,0.93
2019-03-23T03:50:12.654Z,1.15
2019-03-23T03:51:13.175Z,0.86
2019-03-23T03:52:13.087Z,0.78
2019-03-23T03:53:13.700Z,0.45
2019-03-23T03:54:13.502Z,0.59
2019-03-23T03:55:14.020Z,0.38
2019-03-23T03:56:13.927Z,0.38
2019-03-23T03:57:14.449Z,0.53
2019-03-23T03:58:14.549Z,0.49
2019-03-23T03:59:14.564Z,0.63
2019-03-23T04:00:14.370Z,1.10
2019-03-23T04:01:14.792Z,0.93
2019-03-23T04:02:15.096Z,1.02
2019-03-23T04:03:15.516Z,0.70
2019-03-23T04:04:16.054Z,0.64
2019-03-23T04:05:15.826Z,0.66
2019-03-23T04:06:16.242Z,0.67
2019-03-23T04:07:16.806Z,0.94
2019-03-23T04:08:16.898Z,0.68
2019-03-23T04:09:16.977Z,0.80
2019-03-23T04:10:16.990Z,0.54
2019-03-23T04:11:16.995Z,0.23
2019-03-23T04:12:16.793Z,0.54
2019-03-23T04:13:17.312Z,0.67
2019-03-23T04:14:17.325Z,0.78
2019-03-23T04:15:17.428Z,0.45
2019-03-23T04:16:17.124Z,0.66
2019-03-23T04:17:17.557Z,0.82
2019-03-23T04:18:17.960Z,1.19
2019-03-23T04:19:18.383Z,1.11
2019-03-23T04:20:18.997Z,0.39
2019-03-23T04:21:18.900Z,0.25
2019-03-23T04:22:19.227Z,0.01
2019-03-23T04:23:19.638Z,0.90
2019-03-23T04:24:20.049Z,0.63
2019-03-23T04:25:20.564Z,0.63
2019-03-23T04:26:20.263Z,0.76
2019-03-23T04:27:20.584Z,0.94
2019-03-23T04:28:20.693Z,0.69
2019-03-23T04:29:21.301Z,0.08
2019-03-23T04:30:21.012Z,0.07
2019-03-23T04:31:21.115Z,0.59
2019-03-23T04:32:21.643Z,0.90
2019-03-23T04:33:21.667Z,0.96
2019-03-23T04:34:21.648Z,0.88
2019-03-23T04:35:22.180Z,0.74
2019-03-23T04:36:21.868Z,0.51
2019-03-23T04:37:22.287Z,0.58
2019-03-23T04:38:23.383Z,0.48
2019-03-23T04:39:23.009Z,0.69
2019-03-23T04:40:23.150Z,0.34
2019-03-23T04:41:23.333Z,0.70
2019-03-23T04:42:23.589Z,0.92
2019-03-23T04:43:23.956Z,1.05
2019-03-23T04:44:24.475Z,0.77
2019-03-23T04:45:24.582Z,0.31
2019-03-23T04:46:24.283Z,0.00
2019-03-23T04:47:24.912Z,0.00
2019-03-23T04:48:24.917Z,0.01
2019-03-23T04:49:25.021Z,0.38
2019-03-23T04:50:24.722Z,0.34
2019-03-23T04:51:25.238Z,0.04
2019-03-23T04:52:25.558Z,0.00
2019-03-23T04:53:25.454Z,0.00
2019-03-23T04:54:25.973Z,0.00
2019-03-23T04:55:26.499Z,0.00
2019-03-23T04:56:26.603Z,0.00
2019-03-23T04:57:26.614Z,0.00
2019-03-23T04:58:26.722Z,0.51
2019-03-23T04:59:26.379Z,0.56
2019-03-23T05:00:26.836Z,0.46
2019-03-23T05:01:27.351Z,0.28
2019-03-23T05:02:27.880Z,0.00
2019-03-23T05:03:27.569Z,0.00
2019-03-23T05:04:27.886Z,0.00
2019-03-23T05:05:28.094Z,0.00
2019-03-23T05:06:28.405Z,0.00
2019-03-23T05:07:28.935Z,0.00
2019-03-23T05:08:33.337Z,0.00
2019-03-23T05:09:29.244Z,0.00
2019-03-23T05:10:29.869Z,0.00
2019-03-23T05:11:30.081Z,0.00
2019-03-23T05:12:30.505Z,0.00
2019-03-23T05:13:30.911Z,0.03
2019-03-23T05:14:31.441Z,0.34
2019-03-23T05:15:31.434Z,0.42
2019-03-23T05:16:31.364Z,0.56
2019-03-23T05:17:31.664Z,0.24
2019-03-23T05:18:32.177Z,0.11
2019-03-23T05:19:32.291Z,0.54
2019-03-23T05:20:32.389Z,0.42
2019-03-23T05:21:32.402Z,0.42
2019-03-23T05:22:32.203Z,0.28
2019-03-23T05:23:32.622Z,0.44
2019-03-23T05:24:33.133Z,0.43
2019-03-23T05:25:33.046Z,0.16
2019-03-23T05:26:33.558Z,0.00
2019-03-23T05:27:33.577Z,0.00
2019-03-23T05:28:33.567Z,0.34
2019-03-23T05:29:33.683Z,0.67
2019-03-23T05:30:34.100Z,0.53
2019-03-23T05:31:34.514Z,0.36
2019-03-23T05:32:34.762Z,0.49
2019-03-23T05:33:35.041Z,0.25
2019-03-23T05:34:35.248Z,0.41
2019-03-23T05:35:35.669Z,0.60
2019-03-23T05:36:36.077Z,0.59
2019-03-23T05:37:36.296Z,0.55
2019-03-23T05:38:44.281Z,0.04
2019-03-23T05:39:37.223Z,0.00
2019-03-23T05:40:37.230Z,0.00
2019-03-23T05:41:37.211Z,0.00
2019-03-23T05:42:37.706Z,0.01
2019-03-23T05:43:38.119Z,0.45
2019-03-23T05:44:38.690Z,0.52
2019-03-23T05:45:38.799Z,0.45
2019-03-23T05:46:38.496Z,1.03
2019-03-23T05:47:39.026Z,0.60
2019-03-23T05:48:38.714Z,0.90
2019-03-23T05:49:39.345Z,1.28
2019-03-23T05:50:38.934Z,1.47
2019-03-23T05:51:39.255Z,0.99
2019-03-23T05:52:39.791Z,0.52
2019-03-23T05:53:39.776Z,0.62
2019-03-23T05:54:40.193Z,1.02
2019-03-23T05:56:40.826Z,0.68
2019-03-23T05:57:40.934Z,0.41
2019-03-23T05:58:41.040Z,0.30
2019-03-23T05:59:41.148Z,0.01
2019-03-23T06:00:41.155Z,0.37
2019-03-23T06:01:41.275Z,0.59
2019-03-23T06:02:41.165Z,1.04
2019-03-23T06:03:41.473Z,0.49
2019-03-23T06:04:41.866Z,0.76
2019-03-23T06:05:42.004Z,1.21
2019-03-23T06:06:42.235Z,0.82
2019-03-23T06:07:42.833Z,0.52
2019-03-23T06:08:42.638Z,0.37
2019-03-23T06:09:42.806Z,0.00
2019-03-23T06:10:42.865Z,0.28
2019-03-23T06:11:43.385Z,0.95
2019-03-23T06:12:43.279Z,0.32
2019-03-23T06:13:43.701Z,0.50
2019-03-23T06:14:44.214Z,0.25
2019-03-23T06:15:44.323Z,0.14
2019-03-23T06:16:44.233Z,0.45
2019-03-23T06:17:44.648Z,1.38
2019-03-23T06:18:45.155Z,1.40
2019-03-23T06:19:45.577Z,0.56
2019-03-23T06:20:45.480Z,0.10
2019-03-23T06:21:46.512Z,0.00
2019-03-23T06:22:46.319Z,0.00
2019-03-23T06:24:46.834Z,0.00
2019-03-23T06:25:47.351Z,0.00
2019-03-23T06:26:47.158Z,0.00
2019-03-23T06:27:47.532Z,0.00
2019-03-23T06:28:47.779Z,0.00
2019-03-23T06:29:47.946Z,0.00
2019-03-23T06:30:48.209Z,0.00
2019-03-23T06:31:48.215Z,0.00
2019-03-23T06:32:48.451Z,0.00
2019-03-23T06:33:48.743Z,0.00
2019-03-23T06:34:48.849Z,0.00
2019-03-23T06:35:49.267Z,0.00
2019-03-23T06:36:49.478Z,0.00
2019-03-23T06:37:49.582Z,0.00
2019-03-23T06:38:50.001Z,0.00
2019-03-23T06:39:50.111Z,0.00
2019-03-23T06:40:50.426Z,0.14
2019-03-23T06:41:50.533Z,0.29
2019-03-23T06:42:59.292Z,0.56
2019-03-23T06:43:51.161Z,0.66
2019-03-23T06:44:51.680Z,0.52
2019-03-23T06:45:51.896Z,0.52
2019-03-23T06:46:52.409Z,0.83
2019-03-23T06:47:52.317Z,1.02
2019-03-23T06:48:52.525Z,0.88
2019-03-23T06:49:52.735Z,0.59
2019-03-23T06:50:53.050Z,0.70
2019-03-23T06:51:53.670Z,0.58
2019-03-23T06:52:53.783Z,0.10
2019-03-23T06:53:53.888Z,0.86
2019-03-23T06:54:53.488Z,0.93
2019-03-23T06:55:53.755Z,0.82
2019-03-23T06:56:54.321Z,0.28
2019-03-23T06:57:54.434Z,0.00
2019-03-23T06:58:54.435Z,0.00
2019-03-23T06:59:54.135Z,0.00
2019-03-23T07:00:54.531Z,0.00
2019-03-23T07:01:54.974Z,0.00
2019-03-23T07:02:55.589Z,0.00
2019-03-23T07:03:55.297Z,0.52
2019-03-23T07:04:55.498Z,0.82
2019-03-23T07:05:55.916Z,0.70
2019-03-23T07:06:55.967Z,0.04
2019-03-23T07:07:56.133Z,0.00
2019-03-23T07:08:56.650Z,0.27
2019-03-23T07:09:56.655Z,0.45
2019-03-23T07:10:56.557Z,0.34
2019-03-23T07:11:57.013Z,0.81
2019-03-23T07:12:56.883Z,0.65
2019-03-23T07:13:57.195Z,1.04
2019-03-23T07:14:57.509Z,1.07
2019-03-23T07:15:57.783Z,0.72
2019-03-23T07:16:58.340Z,0.90
2019-03-23T07:17:58.452Z,0.00
2019-03-23T07:18:58.087Z,0.01
2019-03-23T07:19:58.458Z,0.89
2019-03-23T07:20:58.773Z,0.90
2019-03-23T07:21:59.177Z,0.87
2019-03-23T07:22:59.420Z,0.45
2019-03-23T07:23:59.818Z,0.63
2019-03-23T07:25:00.441Z,0.70
2019-03-23T07:26:00.755Z,0.59
2019-03-23T07:27:00.658Z,0.89
2019-03-23T07:28:00.972Z,1.28
2019-03-23T07:29:01.392Z,0.72
2019-03-23T07:30:01.806Z,0.17
2019-03-23T07:31:02.120Z,0.00
2019-03-23T07:32:06.101Z,0.03
2019-03-23T07:33:02.130Z,1.52
2019-03-23T07:34:07.048Z,1.31
2019-03-23T07:35:03.480Z,1.07
2019-03-23T07:36:02.763Z,0.31
2019-03-23T07:37:05.975Z,0.52
2019-03-23T07:38:03.705Z,0.35
2019-03-23T07:39:03.501Z,0.32
2019-03-23T07:40:04.122Z,0.64
2019-03-23T07:41:04.136Z,0.31
2019-03-23T07:42:04.653Z,0.81
2019-03-23T07:43:04.464Z,0.34
2019-03-23T07:44:05.071Z,0.00
2019-03-23T07:45:04.872Z,0.49
2019-03-23T07:46:05.085Z,0.20
2019-03-23T07:47:05.298Z,0.52
2019-03-23T07:48:05.711Z,1.39
2019-03-23T07:49:06.142Z,1.11
2019-03-23T07:50:06.439Z,1.30
2019-03-23T07:51:07.182Z,0.97
2019-03-23T07:52:07.271Z,1.28
2019-03-23T07:53:07.381Z,1.66
2019-03-23T07:54:07.495Z,1.07
2019-03-23T07:55:07.394Z,0.48
2019-03-23T07:56:07.504Z,0.00
2019-03-23T07:57:07.714Z,0.66
2019-03-23T07:58:08.231Z,0.94
2019-03-23T07:59:08.146Z,0.37
2019-03-23T08:00:08.559Z,0.79
2019-03-23T08:01:09.173Z,0.74
2019-03-23T08:02:09.079Z,1.14
2019-03-23T08:03:09.496Z,0.83
2019-03-23T08:04:10.016Z,0.59
2019-03-23T08:05:10.380Z,1.04
2019-03-23T08:06:10.285Z,1.38
2019-03-23T08:07:10.750Z,0.91
2019-03-23T08:08:11.164Z,2.62
2019-03-23T08:09:20.115Z,1.56
2019-03-23T08:10:11.525Z,0.93
2019-03-23T08:11:11.492Z,1.21
2019-03-23T08:12:11.912Z,0.80
2019-03-23T08:13:12.344Z,0.57
2019-03-23T08:14:12.746Z,1.42
2019-03-23T08:15:13.060Z,1.53
2019-03-23T08:16:13.597Z,1.10
2019-03-23T08:17:13.379Z,1.04
2019-03-23T08:18:13.794Z,1.25
2019-03-23T08:19:14.419Z,0.63
2019-03-23T08:20:14.530Z,1.42
2019-03-23T08:21:14.352Z,1.16
2019-03-23T08:22:14.635Z,0.44
2019-03-23T08:23:17.911Z,0.65
2019-03-23T08:24:15.434Z,0.56
2019-03-23T08:25:15.281Z,1.95
2019-03-23T08:26:15.487Z,1.63
2019-03-23T08:27:16.000Z,2.02
2019-03-23T08:28:16.522Z,0.76
2019-03-23T08:29:16.635Z,1.04
2019-03-23T08:30:16.430Z,0.28
2019-03-23T08:31:16.946Z,0.59
2019-03-23T08:32:17.061Z,0.68
2019-03-23T08:33:18.211Z,1.35
2019-03-23T08:34:17.583Z,1.15
2019-03-23T08:35:17.593Z,0.92
2019-03-23T08:36:17.285Z,1.16
2019-03-23T08:37:17.809Z,0.63
2019-03-23T08:38:17.813Z,1.34
2019-03-23T08:39:18.140Z,1.33
2019-03-23T08:40:18.632Z,1.80
2019-03-23T08:41:18.562Z,1.35
2019-03-23T08:42:18.958Z,0.74
2019-03-23T08:43:19.554Z,1.53
2019-03-23T08:44:19.014Z,1.83
2019-03-23T08:45:19.812Z,0.97
2019-03-23T08:46:20.118Z,1.70
2019-03-23T08:47:20.271Z,1.80
2019-03-23T08:48:20.743Z,1.04
2019-03-23T08:49:21.269Z,1.74
2019-03-23T08:50:21.069Z,0.65
2019-03-23T08:51:21.483Z,0.62
2019-03-23T08:52:22.100Z,0.94
2019-03-23T08:53:24.591Z,1.50
2019-03-23T08:54:22.017Z,1.48
2019-03-23T08:55:22.319Z,1.30
2019-03-23T08:56:22.434Z,0.94
2019-03-23T08:57:22.569Z,1.59
2019-03-23T08:58:23.061Z,1.14
2019-03-23T08:59:23.476Z,0.53
2019-03-23T09:00:23.493Z,0.61
2019-03-23T09:01:24.014Z,0.48
2019-03-23T09:02:23.703Z,0.68
2019-03-23T09:03:24.221Z,0.48
2019-03-23T09:04:24.637Z,0.70
2019-03-23T09:05:25.063Z,0.86
2019-03-23T09:06:25.570Z,1.57
2019-03-23T09:07:25.271Z,0.85
2019-03-23T09:08:25.799Z,0.51
2019-03-23T09:09:25.813Z,0.54
2019-03-23T09:10:25.805Z,0.82
2019-03-23T09:11:26.322Z,0.79
2019-03-23T09:12:26.225Z,1.44
2019-03-23T09:13:26.444Z,0.76
2019-03-23T09:14:26.895Z,0.39
2019-03-23T09:15:27.278Z,1.57
2019-03-23T09:16:27.991Z,1.62
2019-03-23T09:17:27.693Z,2.00
2019-03-23T09:18:28.212Z,1.34
2019-03-23T09:19:28.016Z,2.30
2019-03-23T09:20:29.597Z,1.84
2019-03-23T09:21:28.435Z,0.95
2019-03-23T09:22:58.215Z,0.83
2019-03-23T09:23:33.471Z,1.04
2019-03-23T09:24:40.332Z,1.01
2019-03-23T09:25:29.737Z,1.16
2019-03-23T09:26:29.837Z,0.86
2019-03-23T09:27:30.458Z,1.85
2019-03-23T09:28:30.563Z,1.35
2019-03-23T09:29:30.569Z,0.32
2019-03-23T09:30:30.381Z,0.68
2019-03-23T09:31:31.011Z,0.55
2019-03-23T09:32:30.859Z,0.08
2019-03-23T09:33:31.326Z,1.14
2019-03-23T09:34:31.735Z,1.00
2019-03-23T09:35:32.370Z,0.76
2019-03-23T09:36:32.564Z,0.84
2019-03-23T09:37:32.672Z,1.21
2019-03-23T09:38:32.681Z,1.52
2019-03-23T09:39:33.016Z,0.69
2019-03-23T09:40:33.217Z,0.35
2019-03-23T09:41:33.725Z,0.48
2019-03-23T09:42:33.626Z,1.16
2019-03-23T09:43:34.042Z,1.29
2019-03-23T09:44:34.460Z,0.79
2019-03-23T09:45:34.996Z,0.66
2019-03-23T09:46:34.985Z,0.72
2019-03-23T09:47:35.303Z,0.55
2019-03-23T09:48:35.715Z,1.07
2019-03-23T09:49:36.029Z,1.25
2019-03-23T09:50:36.549Z,1.18
2019-03-23T09:51:36.562Z,1.33
2019-03-23T09:52:36.668Z,0.69
2019-03-23T09:53:37.079Z,1.27
2019-03-23T09:54:37.391Z,1.31
2019-03-23T09:55:37.500Z,1.12
2019-03-23T09:56:37.822Z,1.32
2019-03-23T09:57:38.093Z,0.68
2019-03-23T09:58:37.869Z,0.66
2019-03-23T09:59:38.038Z,0.73
2019-03-23T10:00:38.235Z,0.48
2019-03-23T10:01:38.468Z,1.10
2019-03-23T10:02:38.760Z,1.41
2019-03-23T10:03:38.901Z,1.88
2019-03-23T10:04:39.142Z,0.91
2019-03-23T10:05:39.362Z,2.03
2019-03-23T10:06:40.351Z,1.28
2019-03-23T10:07:40.141Z,1.67
2019-03-23T10:08:40.660Z,1.36
2019-03-23T10:09:40.671Z,1.16
2019-03-23T10:10:40.572Z,1.09
2019-03-23T10:11:41.207Z,2.30
2019-03-23T10:12:41.299Z,2.30
2019-03-23T10:13:41.411Z,1.38
2019-03-23T10:14:41.215Z,1.20
2019-03-23T10:15:41.842Z,1.25
2019-03-23T10:16:41.642Z,2.30
2019-03-23T10:17:41.882Z,2.40
2019-03-23T10:18:42.259Z,2.45
2019-03-23T10:19:42.774Z,1.11
2019-03-23T10:20:42.783Z,0.66
2019-03-23T10:21:43.186Z,1.40
2019-03-23T10:22:43.618Z,1.04
2019-03-23T10:23:44.136Z,2.22
2019-03-23T10:24:44.246Z,1.58
2019-03-23T10:25:44.049Z,0.44
2019-03-23T10:26:44.466Z,0.28
2019-03-23T10:27:45.000Z,0.44
2019-03-23T10:28:44.792Z,1.91
2019-03-23T10:29:45.299Z,1.79
2019-03-23T10:30:45.176Z,1.24
2019-03-23T10:31:45.833Z,1.32
2019-03-23T10:32:45.763Z,1.80
2019-03-23T10:33:46.049Z,1.65
2019-03-23T10:34:46.474Z,2.32
2019-03-23T10:35:46.878Z,0.77
2019-03-23T10:36:47.503Z,1.58
2019-03-23T10:37:47.412Z,1.99
2019-03-23T10:38:47.922Z,1.58
2019-03-23T10:39:48.027Z,2.61
2019-03-23T10:40:47.741Z,1.76
2019-03-23T10:41:48.042Z,2.45
2019-03-23T10:42:48.677Z,2.26
2019-03-23T10:43:48.695Z,1.34
2019-03-23T10:44:49.289Z,1.85
2019-03-23T10:45:49.399Z,0.80
2019-03-23T10:46:49.016Z,0.56
2019-03-23T10:47:49.537Z,1.51
2019-03-23T10:48:49.723Z,0.72
2019-03-23T10:49:49.937Z,0.48
2019-03-23T10:50:50.252Z,2.79
2019-03-23T10:51:50.663Z,1.47
2019-03-23T10:52:51.095Z,2.03
2019-03-23T10:53:51.706Z,1.75
2019-03-23T10:54:51.813Z,2.31
2019-03-23T10:55:51.842Z,0.82
2019-03-23T10:56:51.416Z,1.34
2019-03-23T10:57:51.839Z,2.34
2019-03-23T10:58:52.266Z,2.16
2019-03-23T10:59:52.564Z,1.57
2019-03-23T11:00:52.975Z,2.43
2019-03-23T11:01:53.393Z,2.26
2019-03-23T11:02:54.026Z,1.25
2019-03-23T11:03:53.815Z,2.40
2019-03-23T11:04:54.232Z,1.13
2019-03-23T11:05:54.650Z,1.78
2019-03-23T11:06:54.994Z,2.15
2019-03-23T11:07:55.490Z,1.43
2019-03-23T11:08:55.386Z,0.92
2019-03-23T11:09:55.908Z,0.98
2019-03-23T11:10:56.015Z,1.09
2019-03-23T11:11:55.716Z,1.85
2019-03-23T11:12:56.250Z,1.45
2019-03-23T11:13:56.033Z,1.62
2019-03-23T11:14:56.251Z,1.52
2019-03-23T11:15:56.768Z,1.04
2019-03-23T11:16:56.885Z,1.19
2019-03-23T11:17:56.994Z,1.70
2019-03-23T11:18:57.087Z,2.03
2019-03-23T11:19:58.489Z,0.62
2019-03-23T11:20:57.306Z,1.79
2019-03-23T11:21:57.106Z,1.35
2019-03-23T11:22:57.551Z,1.62
2019-03-23T11:23:57.431Z,3.68
2019-03-23T11:24:57.946Z,1.21
2019-03-23T11:25:57.954Z,0.73
2019-03-23T11:26:57.962Z,2.92
2019-03-23T11:27:58.481Z,1.56
2019-03-23T11:28:58.599Z,1.16
2019-03-23T11:29:58.389Z,2.35
2019-03-23T11:30:58.704Z,1.17
2019-03-23T11:31:59.220Z,1.28
2019-03-23T11:32:58.925Z,1.23
2019-03-23T11:33:59.448Z,0.69
2019-03-23T11:34:59.291Z,1.93
2019-03-23T11:35:59.760Z,1.71
2019-03-23T11:36:59.768Z,1.75
2019-03-23T11:38:02.244Z,1.59
2019-03-23T11:39:00.103Z,1.92
2019-03-23T11:40:00.324Z,1.04
2019-03-23T11:41:00.307Z,1.93
2019-03-23T11:42:00.412Z,1.57
2019-03-23T11:43:00.319Z,2.13
2019-03-23T11:45:00.955Z,1.78
2019-03-23T11:46:01.464Z,1.50
2019-03-23T11:47:01.718Z,0.83
2019-03-23T11:48:01.786Z,1.24
2019-03-23T11:49:02.002Z,1.59
2019-03-23T11:50:02.105Z,0.08
2019-03-23T11:51:02.237Z,0.39
2019-03-23T11:52:02.326Z,0.92
2019-03-23T11:53:02.329Z,1.41
2019-03-23T11:54:02.548Z,2.05
2019-03-23T11:55:02.653Z,2.17
2019-03-23T11:56:03.166Z,2.54
2019-03-23T11:57:03.286Z,2.71
2019-03-23T11:58:03.384Z,1.19
2019-03-23T11:59:03.398Z,1.96
2019-03-23T12:00:03.401Z,1.28
2019-03-23T12:01:03.914Z,1.00
2019-03-23T12:02:04.033Z,1.32
2019-03-23T12:03:03.827Z,2.59
2019-03-23T12:04:04.384Z,2.19
2019-03-23T12:05:03.844Z,2.24
2019-03-23T12:06:04.359Z,2.46
2019-03-23T12:07:04.676Z,2.47
2019-03-23T12:08:04.884Z,3.16
2019-03-23T12:09:05.520Z,3.95
2019-03-23T12:10:05.612Z,2.12
2019-03-23T12:11:05.211Z,1.35
2019-03-23T12:12:06.040Z,2.18
2019-03-23T12:13:06.408Z,2.03
2019-03-23T12:14:06.875Z,2.35
2019-03-23T12:15:07.496Z,2.80
2019-03-23T12:16:07.598Z,2.09
2019-03-23T12:17:07.710Z,1.95
2019-03-23T12:18:07.818Z,1.90
2019-03-23T12:19:07.682Z,0.62
2019-03-23T12:20:08.246Z,1.07
2019-03-23T12:21:08.147Z,1.61
2019-03-23T12:22:08.763Z,2.68
2019-03-23T12:23:08.567Z,2.59
2019-03-23T12:24:09.083Z,2.32
2019-03-23T12:25:08.895Z,1.98
2019-03-23T12:26:09.404Z,2.43
2019-03-23T12:27:09.514Z,1.03
2019-03-23T12:28:09.623Z,1.78
2019-03-23T12:29:09.530Z,0.54
2019-03-23T12:30:10.157Z,0.38
2019-03-23T12:31:10.372Z,0.00
2019-03-23T12:32:10.263Z,0.92
2019-03-23T12:33:10.783Z,2.97
2019-03-23T12:34:10.761Z,3.22
2019-03-23T12:35:11.015Z,4.08
2019-03-23T12:36:11.624Z,2.09
2019-03-23T12:37:11.318Z,3.44
2019-03-23T12:38:11.633Z,1.85
2019-03-23T12:39:11.643Z,2.64
2019-03-23T12:40:12.378Z,3.42
2019-03-23T12:41:22.791Z,1.80
2019-03-23T12:42:12.275Z,2.11
2019-03-23T12:43:17.823Z,3.26
2019-03-23T12:44:12.900Z,2.07
2019-03-23T12:45:12.919Z,1.38
2019-03-23T12:46:13.021Z,2.13
2019-03-23T12:47:13.026Z,1.14
2019-03-23T12:48:13.035Z,1.11
2019-03-23T12:49:12.897Z,1.28
2019-03-23T12:50:13.323Z,1.14
2019-03-23T12:51:13.878Z,2.27
2019-03-23T12:52:13.907Z,2.19
2019-03-23T12:53:13.987Z,4.26
2019-03-23T12:54:13.921Z,3.03
2019-03-23T12:55:14.532Z,2.63
2019-03-23T12:56:14.622Z,2.16
2019-03-23T12:57:14.625Z,2.58
2019-03-23T12:58:14.530Z,2.95
2019-03-23T12:59:15.049Z,2.05
2019-03-23T13:00:14.957Z,1.50
2019-03-23T13:01:15.481Z,0.70
2019-03-23T13:02:15.477Z,1.02
2019-03-23T13:03:15.689Z,0.79
2019-03-23T13:04:16.309Z,1.59
2019-03-23T13:06:16.335Z,1.28
2019-03-23T13:07:16.845Z,1.71
2019-03-23T13:08:16.846Z,1.67
2019-03-23T13:09:16.857Z,1.14
2019-03-23T13:10:16.992Z,3.66
2019-03-23T13:11:23.316Z,2.71
2019-03-23T13:12:17.581Z,2.84
2019-03-23T13:13:17.674Z,2.55
2019-03-23T13:14:17.910Z,2.71
2019-03-23T13:15:17.787Z,1.38
2019-03-23T13:16:18.239Z,3.01
2019-03-23T13:17:18.852Z,2.34
2019-03-23T13:18:26.862Z,2.89
2019-03-23T13:19:19.071Z,2.58
2019-03-23T13:20:19.728Z,3.05
2019-03-23T13:21:19.400Z,1.51
2019-03-23T13:22:19.621Z,2.71
2019-03-23T13:23:20.223Z,1.29
2019-03-23T13:24:19.824Z,0.63
2019-03-23T13:25:20.233Z,2.00